Time;durP1;ratioP1;P1;durP2;ratioP2;P2;SDS_P1;SDS_P2;PMS_P1;PMS_P2;Temp;Humidity;BMP_temperature;BMP_pressure;BME280_temperature;BME280_humidity;BME280_pressure;Samples;Min_cycle;Max_cycle;Signal;HPM_P1;HPM_P2
2022/03/01 00:01:29;;;;;;;9.43;7.00;;;1.70;1.00;;;;;;5098920;28;20202;-59
2022/03/01 00:03:55;;;;;;;10.27;6.73;;;1.70;1.00;;;;;;5101537;28;20886;-60
2022/03/01 00:06:27;;;;;;;9.67;6.30;;;1.70;1.00;;;;;;5105894;28;20628;-59
2022/03/01 00:08:54;;;;;;;13.87;7.87;;;1.60;1.00;;;;;;5097636;28;20186;-59
2022/03/01 00:11:25;;;;;;;9.30;6.47;;;1.60;1.00;;;;;;5105074;28;20451;-60
2022/03/01 00:13:51;;;;;;;12.70;6.80;;;1.70;1.00;;;;;;5098052;28;20441;-59
2022/03/01 00:16:22;;;;;;;8.90;6.30;;;1.60;1.00;;;;;;5101996;28;20440;-60
2022/03/01 00:18:48;;;;;;;10.87;7.60;;;1.60;1.00;;;;;;5102420;28;20193;-60
2022/03/01 00:21:28;;;;;;;6.87;5.50;;;1.60;1.00;;;;;;5103203;28;20990;-59
2022/03/01 00:23:53;;;;;;;10.60;6.50;;;1.60;1.00;;;;;;5100751;28;20639;-59
2022/03/01 00:26:20;;;;;;;17.23;7.90;;;1.60;1.00;;;;;;5107510;28;20450;-59
2022/03/01 00:28:46;;;;;;;9.00;5.73;;;1.60;1.00;;;;;;5098922;28;20186;-59
2022/03/01 00:31:29;;;;;;;7.53;5.20;;;1.50;1.00;;;;;;5098585;28;20440;-59
2022/03/01 00:33:55;;;;;;;13.27;7.27;;;;;;;;;;5082225;28;20667;-59
2022/03/01 00:36:21;;;;;;;8.67;6.90;;;1.50;1.00;;;;;;5100626;28;20613;-59
2022/03/01 00:38:46;;;;;;;12.10;7.13;;;1.60;1.00;;;;;;5105790;28;20440;-60
2022/03/01 00:41:24;;;;;;;10.10;6.03;;;1.50;1.00;;;;;;5102250;28;20210;-59
2022/03/01 00:43:50;;;;;;;10.97;6.77;;;1.50;1.00;;;;;;5103253;28;20202;-61
2022/03/01 00:46:26;;;;;;;9.57;6.87;;;1.60;1.00;;;;;;5100262;28;20762;-59
2022/03/01 00:48:56;;;;;;;12.30;7.97;;;1.50;1.00;;;;;;5102902;28;20442;-59
2022/03/01 00:51:26;;;;;;;9.20;7.90;;;1.50;1.00;;;;;;5103892;28;20535;-58
2022/03/01 00:53:52;;;;;;;9.97;6.03;;;1.50;1.00;;;;;;5105513;28;21043;-59
2022/03/01 00:56:24;;;;;;;12.50;7.00;;;1.40;1.00;;;;;;5094617;28;20456;-59
2022/03/01 00:58:50;;;;;;;8.43;5.83;;;1.40;1.00;;;;;;5098334;28;20527;-58
2022/03/01 01:01:18;;;;;;;9.57;6.30;;;1.40;1.00;;;;;;5079450;28;20562;-61
2022/03/01 01:03:45;;;;;;;10.17;6.20;;;;;;;;;;5103463;28;20739;-60
2022/03/01 01:06:26;;;;;;;12.97;6.60;;;1.30;1.00;;;;;;5111622;28;20462;-59
2022/03/01 01:08:52;;;;;;;10.97;6.93;;;1.30;1.00;;;;;;5109276;28;20456;-60
2022/03/01 01:11:24;;;;;;;10.77;7.00;;;1.30;1.00;;;;;;5110913;28;20450;-58
2022/03/01 01:13:50;;;;;;;13.67;8.37;;;1.30;1.00;;;;;;5100015;28;20209;-58
2022/03/01 01:16:24;;;;;;;11.83;6.93;;;1.20;1.00;;;;;;5104460;28;20443;-58
2022/03/01 01:18:50;;;;;;;10.00;6.50;;;1.20;1.00;;;;;;5100708;28;20446;-58
2022/03/01 01:21:19;;;;;;;8.93;6.20;;;1.20;1.00;;;;;;5102447;28;20976;-59
2022/03/01 01:23:45;;;;;;;9.63;5.80;;;;;;;;;;5103954;28;20651;-59
2022/03/01 01:26:26;;;;;;;10.57;6.83;;;1.20;1.00;;;;;;5105264;28;20428;-59
2022/03/01 01:28:51;;;;;;;9.97;6.93;;;;;;;;;;5104629;28;20813;-58
2022/03/01 01:31:36;;;;;;;13.23;6.30;;;1.10;1.00;;;;;;5106481;28;20447;-59
2022/03/01 01:34:02;;;;;;;9.93;6.60;;;;;;;;;;5107113;28;20558;-60
2022/03/01 01:36:27;;;;;;;8.30;6.00;;;1.20;1.00;;;;;;5105792;28;20596;-59
2022/03/01 01:38:53;;;;;;;9.80;5.30;;;1.20;1.00;;;;;;5107297;28;20591;-60
2022/03/01 01:41:24;;;;;;;10.00;5.83;;;1.20;1.00;;;;;;5106295;28;20745;-60
2022/03/01 01:43:50;;;;;;;9.20;5.63;;;1.20;1.00;;;;;;5088318;28;20647;-61
2022/03/01 01:46:28;;;;;;;8.70;5.93;;;1.20;1.00;;;;;;5113028;28;20538;-61
2022/03/01 01:48:54;;;;;;;11.50;7.17;;;;;;;;;;5100088;28;20198;-61
2022/03/01 01:51:20;;;;;;;9.30;6.27;;;1.20;1.00;;;;;;5103331;28;20956;-60
2022/03/01 01:53:46;;;;;;;8.57;6.00;;;1.20;1.00;;;;;;5104462;28;20444;-61
2022/03/01 01:56:25;;;;;;;9.77;6.30;;;1.10;1.00;;;;;;5106442;28;20472;-61
2022/03/01 01:58:52;;;;;;;9.87;5.77;;;1.10;1.00;;;;;;5099440;28;20523;-61
2022/03/01 02:01:18;;;;;;;8.23;6.00;;;1.10;1.00;;;;;;5098570;28;20864;-60
2022/03/01 02:03:43;;;;;;;11.20;6.17;;;1.20;1.00;;;;;;5096384;28;20440;-61
2022/03/01 02:06:28;;;;;;;11.90;7.17;;;1.10;1.00;;;;;;5101047;28;20432;-60
2022/03/01 02:08:53;;;;;;;8.33;5.70;;;1.10;1.00;;;;;;5107144;28;20440;-59
2022/03/01 02:11:37;;;;;;;8.63;6.07;;;1.10;1.00;;;;;;5106056;28;20448;-58
2022/03/01 02:14:03;;;;;;;7.80;5.03;;;1.00;1.00;;;;;;5110264;28;20239;-60
2022/03/01 02:16:28;;;;;;;9.53;6.10;;;1.00;1.00;;;;;;5100413;28;20440;-60
2022/03/01 02:18:54;;;;;;;8.47;6.20;;;;;;;;;;5090000;28;20186;-59
2022/03/01 02:21:35;;;;;;;8.00;6.00;;;1.00;1.00;;;;;;5105773;28;20210;-59
2022/03/01 02:24:00;;;;;;;6.63;5.17;;;1.10;1.00;;;;;;5098541;28;20452;-59
2022/03/01 02:26:29;;;;;;;13.30;6.43;;;1.00;1.00;;;;;;5109061;28;20750;-60
2022/03/01 02:28:55;;;;;;;10.47;5.67;;;1.00;1.00;;;;;;5104963;28;20897;-58
2022/03/01 02:31:20;;;;;;;10.93;6.90;;;1.00;1.00;;;;;;5098625;28;20546;-59
2022/03/01 02:33:46;;;;;;;9.73;6.87;;;1.00;1.00;;;;;;5105293;28;20201;-59
2022/03/01 02:36:33;;;;;;;9.20;6.20;;;1.00;1.00;;;;;;5101066;28;20179;-60
2022/03/01 02:38:59;;;;;;;9.10;5.47;;;1.00;1.00;;;;;;5104968;28;20193;-58
2022/03/01 02:41:26;;;;;;;8.20;5.70;;;;;;;;;;5109393;28;21032;-59
2022/03/01 02:43:52;;;;;;;10.50;6.17;;;1.00;1.00;;;;;;5088559;28;20709;-58
2022/03/01 02:46:21;;;;;;;10.37;6.30;;;1.00;1.00;;;;;;5099358;28;20451;-59
2022/03/01 02:48:46;;;;;;;12.47;5.80;;;1.00;1.00;;;;;;5107235;28;20221;-59
2022/03/01 02:51:21;;;;;;;10.73;6.30;;;1.10;1.00;;;;;;5105682;28;20444;-61
2022/03/01 02:53:47;;;;;;;8.07;5.90;;;1.00;1.00;;;;;;5104647;28;20259;-58
2022/03/01 02:56:18;;;;;;;13.67;5.80;;;1.10;1.00;;;;;;5102703;28;20472;-60
2022/03/01 02:58:44;;;;;;;12.83;6.90;;;1.00;1.00;;;;;;5096363;28;20246;-61
2022/03/01 03:01:17;;;;;;;10.17;6.07;;;1.00;1.00;;;;;;5105836;28;20467;-60
2022/03/01 03:03:43;;;;;;;13.20;6.77;;;1.00;1.00;;;;;;5098629;28;20183;-58
2022/03/01 03:06:12;;;;;;;12.43;6.73;;;1.10;1.00;;;;;;5097830;28;20577;-60
2022/03/01 03:08:39;;;;;;;10.80;7.47;;;1.00;1.00;;;;;;5101582;28;20174;-60
2022/03/01 03:11:23;;;;;;;12.60;5.87;;;1.00;1.00;;;;;;5106881;28;20448;-59
2022/03/01 03:13:49;;;;;;;11.90;6.30;;;;;;;;;;5101007;28;20444;-60
2022/03/01 03:16:16;;;;;;;9.17;6.50;;;0.90;1.00;;;;;;5102043;28;20491;-61
2022/03/01 03:18:42;;;;;;;10.50;6.60;;;0.90;1.00;;;;;;5103370;28;20494;-60
2022/03/01 03:21:08;;;;;;;8.30;5.60;;;0.90;1.00;;;;;;5101346;28;20475;-59
2022/03/01 03:23:34;;;;;;;7.87;5.57;;;;;;;;;;5105962;28;20452;-60
2022/03/01 03:26:00;;;;;;;9.90;5.60;;;1.00;1.00;;;;;;5109265;28;20203;-62
2022/03/01 03:28:25;;;;;;;12.07;7.17;;;1.00;1.00;;;;;;5106347;28;20449;-60
2022/03/01 03:30:51;;;;;;;13.70;6.80;;;;;;;;;;5101774;28;20450;-59
2022/03/01 03:33:17;;;;;;;10.60;6.80;;;0.90;1.00;;;;;;5094847;28;20445;-59
2022/03/01 03:35:43;;;;;;;8.63;5.87;;;0.80;1.00;;;;;;5100100;28;20439;-61
2022/03/01 03:38:09;;;;;;;10.13;6.50;;;0.80;1.00;;;;;;5105530;28;20244;-59
2022/03/01 03:40:34;;;;;;;9.83;6.23;;;0.80;1.00;;;;;;5104573;28;20472;-59
2022/03/01 03:43:00;;;;;;;9.80;6.00;;;0.90;1.00;;;;;;5101788;28;20252;-59
2022/03/01 03:45:25;;;;;;;8.67;6.20;;;0.90;1.00;;;;;;5098437;28;20187;-59
2022/03/01 03:47:51;;;;;;;10.03;6.87;;;0.90;1.00;;;;;;5103674;28;20208;-58
2022/03/01 03:50:17;;;;;;;8.43;6.20;;;0.90;1.00;;;;;;5098754;28;20189;-59
2022/03/01 03:52:42;;;;;;;7.37;5.60;;;0.90;1.00;;;;;;5101366;28;20636;-60
2022/03/01 03:55:09;;;;;;;9.30;6.27;;;0.80;1.00;;;;;;5092288;28;20230;-59
2022/03/01 03:57:36;;;;;;;11.60;6.70;;;;;;;;;;5106441;28;20186;-59
2022/03/01 04:00:06;;;;;;;9.57;6.20;;;0.80;1.00;;;;;;5097178;28;20909;-58
2022/03/01 04:02:32;;;;;;;9.60;6.37;;;;;;;;;;5101527;28;20821;-59
2022/03/01 04:04:57;;;;;;;12.93;7.33;;;0.80;1.00;;;;;;5105578;28;20458;-57
2022/03/01 04:07:23;;;;;;;8.83;5.43;;;0.70;1.00;;;;;;5101733;28;20452;-60
2022/03/01 04:09:49;;;;;;;10.13;6.70;;;;;;;;;;5096901;28;20201;-60
2022/03/01 04:12:15;;;;;;;8.67;5.20;;;0.80;1.00;;;;;;5100189;28;20452;-60
2022/03/01 04:14:41;;;;;;;10.23;6.37;;;0.80;1.00;;;;;;5106385;28;20534;-57
2022/03/01 04:17:08;;;;;;;8.67;5.17;;;;;;;;;;5101504;28;20444;-61
2022/03/01 04:19:34;;;;;;;10.77;5.30;;;0.80;1.00;;;;;;5106468;28;20450;-58
2022/03/01 04:21:59;;;;;;;11.10;5.50;;;0.80;1.00;;;;;;5100124;28;20491;-58
2022/03/01 04:24:25;;;;;;;8.73;5.50;;;0.80;1.00;;;;;;5103918;28;20200;-58
2022/03/01 04:26:50;;;;;;;8.40;5.30;;;0.70;1.00;;;;;;5097491;28;20659;-59
2022/03/01 04:29:16;;;;;;;7.90;6.00;;;0.70;1.00;;;;;;5104835;28;20182;-59
2022/03/01 04:31:42;;;;;;;9.37;5.67;;;0.70;1.00;;;;;;5096244;28;20182;-60
2022/03/01 04:34:08;;;;;;;6.60;5.30;;;;;;;;;;5096793;28;20591;-59
2022/03/01 04:36:34;;;;;;;11.63;6.10;;;0.70;1.00;;;;;;5112166;28;20216;-60
2022/03/01 04:39:00;;;;;;;8.60;4.83;;;0.60;1.00;;;;;;5087529;28;20443;-58
2022/03/01 04:41:26;;;;;;;9.47;6.13;;;;;;;;;;5107094;28;20289;-60
2022/03/01 04:43:52;;;;;;;9.30;6.00;;;;;;;;;;5104589;28;20543;-58
2022/03/01 04:46:18;;;;;;;7.63;6.03;;;0.60;1.00;;;;;;5102565;28;20451;-58
2022/03/01 04:48:45;;;;;;;9.67;5.80;;;0.60;1.00;;;;;;5089193;28;20510;-60
2022/03/01 04:51:21;;;;;;;8.50;5.60;;;0.70;1.00;;;;;;5094501;28;20448;-60
2022/03/01 04:53:47;;;;;;;7.50;5.17;;;0.70;1.00;;;;;;5098568;28;21000;-59
2022/03/01 04:56:16;;;;;;;5.77;4.17;;;0.70;1.00;;;;;;5103478;28;20464;-59
2022/03/01 04:58:42;;;;;;;10.00;5.23;;;0.60;1.00;;;;;;5112949;28;20771;-59
2022/03/01 05:01:08;;;;;;;9.90;6.17;;;0.70;1.00;;;;;;5107207;28;20463;-59
2022/03/01 05:03:34;;;;;;;9.43;6.20;;;0.50;1.00;;;;;;5100961;28;20460;-58
2022/03/01 05:06:00;;;;;;;9.53;5.30;;;0.60;1.00;;;;;;5110546;28;20535;-58
2022/03/01 05:08:30;;;;;;;8.60;6.07;;;0.60;1.00;;;;;;5107782;28;20187;-59
2022/03/01 05:10:56;;;;;;;10.80;5.90;;;0.50;1.00;;;;;;5106305;28;20178;-60
2022/03/01 05:13:22;;;;;;;12.40;6.20;;;;;;;;;;5111795;28;20431;-58
2022/03/01 05:15:48;;;;;;;10.37;6.00;;;0.50;1.00;;;;;;5098571;28;20475;-58
2022/03/01 05:18:13;;;;;;;9.97;5.27;;;0.60;1.00;;;;;;5102620;28;20821;-58
2022/03/01 05:20:39;;;;;;;9.43;5.77;;;0.50;1.00;;;;;;5102943;28;20543;-59
2022/03/01 05:23:05;;;;;;;9.33;6.30;;;;;;;;;;5112507;28;20222;-60
2022/03/01 05:25:30;;;;;;;10.53;6.33;;;0.60;1.00;;;;;;5107974;28;20185;-59
2022/03/01 05:27:56;;;;;;;9.33;5.80;;;0.50;1.00;;;;;;5106276;28;20516;-57
2022/03/01 05:30:23;;;;;;;8.57;5.37;;;0.60;1.00;;;;;;5107749;28;20648;-56
2022/03/01 05:32:52;;;;;;;7.50;5.10;;;0.60;1.00;;;;;;5101515;28;20186;-60
2022/03/01 05:35:24;;;;;;;9.80;5.60;;;0.70;1.00;;;;;;5100730;28;20973;-57
2022/03/01 05:37:53;;;;;;;6.63;5.60;;;;;;;;;;5102113;28;20436;-57
2022/03/01 05:40:21;;;;;;;7.37;5.20;;;0.60;1.00;;;;;;5105135;28;20462;-58
2022/03/01 05:42:47;;;;;;;5.87;5.00;;;;;;;;;;5106838;28;20463;-58
2022/03/01 05:45:13;;;;;;;8.90;6.23;;;0.70;1.00;;;;;;5100524;28;20455;-56
2022/03/01 05:47:40;;;;;;;8.57;6.07;;;0.60;1.00;;;;;;5109723;28;20848;-58
2022/03/01 05:50:09;;;;;;;14.90;7.30;;;0.50;1.00;;;;;;5105867;28;20441;-58
2022/03/01 05:52:35;;;;;;;6.83;5.47;;;0.50;1.00;;;;;;5112512;28;20443;-57
2022/03/01 05:55:00;;;;;;;6.53;4.90;;;0.60;1.00;;;;;;5105669;28;20510;-58
2022/03/01 05:57:28;;;;;;;9.83;5.07;;;0.60;1.00;;;;;;5102343;28;20468;-60
2022/03/01 05:59:55;;;;;;;6.93;5.13;;;0.50;1.00;;;;;;5104925;28;20710;-58
2022/03/01 06:02:20;;;;;;;8.27;5.93;;;0.60;1.00;;;;;;5109009;28;20459;-57
2022/03/01 06:04:46;;;;;;;8.00;6.00;;;0.60;1.00;;;;;;5090709;28;20654;-58
2022/03/01 06:07:11;;;;;;;6.87;5.17;;;0.60;1.00;;;;;;5106616;28;20277;-57
2022/03/01 06:09:37;;;;;;;8.70;6.03;;;0.60;1.00;;;;;;5104051;28;20180;-59
2022/03/01 06:12:03;;;;;;;8.43;5.10;;;0.60;1.00;;;;;;5107182;28;20262;-57
2022/03/01 06:14:28;;;;;;;10.07;6.33;;;0.70;1.00;;;;;;5085973;28;20174;-57
2022/03/01 06:16:54;;;;;;;9.67;5.20;;;0.80;1.00;;;;;;5104890;28;20485;-57
2022/03/01 06:19:20;;;;;;;14.70;5.97;;;;;;;;;;5104648;28;20254;-58
2022/03/01 06:21:45;;;;;;;10.80;5.97;;;0.70;1.00;;;;;;5099774;28;20206;-58
2022/03/01 06:24:12;;;;;;;7.47;5.07;;;;;;;;;;5100906;28;20432;-57
2022/03/01 06:26:37;;;;;;;10.20;6.53;;;0.80;1.00;;;;;;5103489;28;20228;-56
2022/03/01 06:29:04;;;;;;;12.47;6.77;;;0.90;1.00;;;;;;5103619;28;20440;-59
2022/03/01 06:31:30;;;;;;;8.20;5.10;;;;;;;;;;5096683;28;20225;-58
2022/03/01 06:33:56;;;;;;;9.77;6.20;;;1.00;1.00;;;;;;5111315;28;20476;-58
2022/03/01 06:36:25;;;;;;;7.30;5.80;;;1.00;1.00;;;;;;5097791;28;20437;-57
2022/03/01 06:38:51;;;;;;;8.33;5.53;;;1.10;1.00;;;;;;5102671;28;20518;-59
2022/03/01 06:41:23;;;;;;;11.97;7.50;;;1.10;1.00;;;;;;5101468;28;22160;-56
2022/03/01 06:43:48;;;;;;;6.17;5.20;;;1.10;1.00;;;;;;5100263;28;20440;-59
2022/03/01 06:46:15;;;;;;;9.53;6.37;;;1.20;1.00;;;;;;5083028;28;20561;-57
2022/03/01 06:48:40;;;;;;;12.13;6.50;;;1.30;1.00;;;;;;5101177;28;20189;-58
2022/03/01 06:51:07;;;;;;;8.60;6.07;;;1.40;1.00;;;;;;5094659;28;20474;-58
2022/03/01 06:53:34;;;;;;;9.87;6.13;;;1.40;1.00;;;;;;5101165;28;20181;-57
2022/03/01 06:56:00;;;;;;;11.13;5.07;;;1.50;1.00;;;;;;5102484;28;20459;-58
2022/03/01 06:58:26;;;;;;;9.37;6.23;;;1.50;1.00;;;;;;5097121;28;20493;-58
2022/03/01 07:00:51;;;;;;;6.97;6.00;;;1.60;1.00;;;;;;5094116;28;20556;-56
2022/03/01 07:03:17;;;;;;;9.93;6.00;;;;;;;;;;5100988;28;20193;-59
2022/03/01 07:05:44;;;;;;;9.20;7.23;;;1.70;1.00;;;;;;5103256;28;20186;-57
2022/03/01 07:08:10;;;;;;;9.23;5.67;;;;;;;;;;5103888;28;20971;-58
2022/03/01 07:10:36;;;;;;;8.80;6.40;;;1.90;1.00;;;;;;5110497;28;20432;-59
2022/03/01 07:13:02;;;;;;;8.60;6.00;;;1.90;1.00;;;;;;5098702;28;20444;-58
2022/03/01 07:15:27;;;;;;;12.70;6.23;;;2.00;1.00;;;;;;5100803;28;20182;-57
2022/03/01 07:17:53;;;;;;;9.03;6.20;;;2.10;1.00;;;;;;5108245;28;20538;-58
2022/03/01 07:20:18;;;;;;;7.03;5.67;;;2.20;1.00;;;;;;5089686;28;20247;-57
2022/03/01 07:22:44;;;;;;;10.10;5.93;;;2.20;1.00;;;;;;5102336;28;20205;-60
2022/03/01 07:25:10;;;;;;;7.73;5.10;;;2.40;1.00;;;;;;5101977;28;20195;-60
2022/03/01 07:27:36;;;;;;;6.90;5.20;;;2.50;1.00;;;;;;5100842;28;20574;-58
2022/03/01 07:30:02;;;;;;;18.73;6.17;;;2.70;1.00;;;;;;5100386;28;20443;-58
2022/03/01 07:32:28;;;;;;;11.90;5.30;;;;;;;;;;5106214;28;20186;-59
2022/03/01 07:34:53;;;;;;;8.00;5.43;;;2.90;1.00;;;;;;5097297;28;20451;-57
2022/03/01 07:37:19;;;;;;;17.40;7.80;;;3.00;1.00;;;;;;5108056;28;20489;-57
2022/03/01 07:39:44;;;;;;;7.80;5.77;;;3.20;1.00;;;;;;5103375;28;20186;-58
2022/03/01 07:42:39;;;;;;;10.13;5.60;;;3.50;1.00;;;;;;5104220;28;20248;-59
2022/03/01 07:45:05;;;;;;;7.50;5.90;;;;;;;;;;5074160;28;20197;-57
2022/03/01 07:47:31;;;;;;;10.23;6.87;;;;;;;;;;5101170;28;20962;-59
2022/03/01 07:49:58;;;;;;;8.00;6.17;;;;;;;;;;5106589;28;20436;-58
2022/03/01 07:54:53;;;;;;;6.67;5.27;;;;;;;;;;5092314;28;20503;-57
2022/03/01 07:57:19;;;;;;;7.30;4.90;;;4.10;1.00;;;;;;5098872;28;20446;-59
2022/03/01 07:59:45;;;;;;;6.00;5.17;;;4.10;1.00;;;;;;5082704;28;20436;-60
2022/03/01 08:02:10;;;;;;;8.93;6.70;;;4.10;1.00;;;;;;5105207;28;21092;-59
2022/03/01 08:04:37;;;;;;;8.30;6.00;;;4.10;1.00;;;;;;5108662;28;20186;-57
2022/03/01 08:07:03;;;;;;;6.03;4.57;;;4.30;1.00;;;;;;5100840;28;20183;-58
2022/03/01 08:09:29;;;;;;;7.63;5.40;;;4.70;1.00;;;;;;5100620;28;20459;-58
2022/03/01 08:14:53;;;;;;;5.53;4.57;;;;;;;;;;5054600;28;20668;-59
2022/03/01 08:17:19;;;;;;;7.93;6.27;;;;;;;;;;5098182;28;21059;-57
2022/03/01 08:19:46;;;;;;;8.60;5.83;;;5.40;1.00;;;;;;5096315;28;20456;-59
2022/03/01 08:22:12;;;;;;;8.60;5.20;;;5.50;1.00;;;;;;5102224;28;20468;-60
2022/03/01 08:24:38;;;;;;;8.03;5.87;;;;;;;;;;5097449;28;20446;-58
2022/03/01 08:27:30;;;;;;;19.87;17.87;;;5.40;1.00;;;;;;5096513;28;20266;-58
2022/03/01 08:29:55;;;;;;;7.53;5.30;;;5.50;1.00;;;;;;5035711;28;20484;-57
2022/03/01 08:32:21;;;;;;;7.70;5.40;;;;;;;;;;5105325;28;20478;-58
2022/03/01 08:34:47;;;;;;;6.67;5.40;;;5.60;1.00;;;;;;5094056;28;20197;-57
2022/03/01 08:37:22;;;;;;;14.97;5.50;;;5.70;1.00;;;;;;5101439;28;20440;-56
2022/03/01 08:39:48;;;;;;;7.30;5.53;;;5.80;1.00;;;;;;5108653;28;20619;-58
2022/03/01 08:42:13;;;;;;;7.73;5.53;;;5.80;1.00;;;;;;5083388;28;20483;-58
2022/03/01 08:44:39;;;;;;;7.03;6.10;;;5.70;1.00;;;;;;5098075;28;20201;-59
2022/03/01 08:49:53;;;;;;;8.93;5.93;;;5.90;1.00;;;;;;5087136;28;20243;-58
2022/03/01 08:52:19;;;;;;;8.73;5.33;;;;;;;;;;5090880;28;20447;-58
2022/03/01 08:54:45;;;;;;;9.33;5.93;;;6.20;1.00;;;;;;5097860;28;20226;-60
2022/03/01 08:57:31;;;;;;;5.63;4.90;;;6.30;1.00;;;;;;5102035;28;20463;-58
2022/03/01 08:59:56;;;;;;;8.67;6.00;;;6.40;1.00;;;;;;5105796;28;20192;-58
2022/03/01 09:02:22;;;;;;;8.27;5.80;;;6.50;1.00;;;;;;5095186;28;20467;-58
2022/03/01 09:04:48;;;;;;;7.70;5.60;;;6.50;1.00;;;;;;5110708;28;20185;-57
2022/03/01 09:07:13;;;;;;;6.00;5.20;;;6.50;1.00;;;;;;5100103;28;20548;-60
2022/03/01 09:09:39;;;;;;;9.83;6.07;;;6.60;1.00;;;;;;5095613;28;20179;-60
2022/03/01 09:12:05;;;;;;;8.83;5.40;;;6.90;1.00;;;;;;5100600;28;20513;-59
2022/03/01 09:14:31;;;;;;;9.23;6.17;;;;;;;;;;5105422;28;20239;-60
2022/03/01 09:16:56;;;;;;;8.67;5.53;;;7.00;1.00;;;;;;5095251;28;20187;-60
2022/03/01 09:19:22;;;;;;;8.87;6.37;;;7.00;1.00;;;;;;5103714;28;20453;-57
2022/03/01 09:21:48;;;;;;;8.53;5.20;;;7.10;1.00;;;;;;5075905;28;20216;-58
2022/03/01 09:24:13;;;;;;;6.60;5.53;;;7.20;1.00;;;;;;5097007;28;20191;-57
2022/03/01 09:26:39;;;;;;;8.77;4.87;;;7.40;1.00;;;;;;5093575;28;20185;-59
2022/03/01 09:29:05;;;;;;;11.17;5.00;;;;;;;;;;5097338;28;20179;-58
2022/03/01 09:34:57;;;;;;;7.73;5.10;;;7.70;1.00;;;;;;5089682;28;20940;-57
2022/03/01 09:37:23;;;;;;;6.50;4.60;;;7.80;1.00;;;;;;5106123;28;20463;-58
2022/03/01 09:39:48;;;;;;;7.37;5.00;;;7.80;1.00;;;;;;5107587;28;20193;-58
2022/03/01 09:42:14;;;;;;;9.07;5.17;;;7.80;1.00;;;;;;5093282;28;20467;-58
2022/03/01 09:44:41;;;;;;;9.77;5.23;;;7.70;1.00;;;;;;5093384;28;20178;-58
2022/03/01 09:47:07;;;;;;;5.27;4.77;;;7.70;1.00;;;;;;5093430;28;20206;-59
2022/03/01 09:49:33;;;;;;;8.17;4.47;;;7.80;1.00;;;;;;5095089;28;20869;-59
2022/03/01 09:52:02;;;;;;;6.50;4.50;;;7.90;1.00;;;;;;5093398;28;20433;-58
2022/03/01 09:54:28;;;;;;;4.97;4.40;;;8.00;1.00;;;;;;5095236;28;20246;-59
2022/03/01 09:57:13;;;;;;;5.87;4.50;;;7.90;1.00;;;;;;5076743;28;20448;-60
2022/03/01 09:59:38;;;;;;;5.17;4.43;;;7.90;1.00;;;;;;5109305;28;20796;-58
2022/03/01 10:02:34;;;;;;;5.20;4.70;;;8.00;1.00;;;;;;5105919;28;20467;-59
2022/03/01 10:05:01;;;;;;;4.67;4.20;;;7.90;1.00;;;;;;5071698;28;20298;-59
2022/03/01 10:07:38;;;;;;;5.30;4.10;;;8.00;1.00;;;;;;5103578;28;20849;-59
2022/03/01 10:10:08;;;;;;;8.40;5.00;;;8.20;1.00;;;;;;5095352;28;20589;-58
2022/03/01 10:15:06;;;;;;;5.83;4.83;;;8.60;1.00;;;;;;5104770;28;20602;-59
2022/03/01 10:17:41;;;;;;;6.00;4.73;;;9.30;1.00;;;;;;5105403;28;20659;-59
2022/03/01 10:20:20;;;;;;;6.13;5.23;;;8.80;1.00;;;;;;5099694;28;20419;-59
2022/03/01 10:22:49;;;;;;;6.47;4.30;;;8.70;1.00;;;;;;5106019;28;20989;-58
2022/03/01 10:25:17;;;;;;;5.43;4.63;;;8.80;1.00;;;;;;5107520;28;20538;-59
2022/03/01 10:27:46;;;;;;;5.30;4.80;;;8.80;1.00;;;;;;5104882;28;20436;-57
2022/03/01 10:30:29;;;;;;;6.53;5.13;;;8.90;1.00;;;;;;5105699;28;20460;-60
2022/03/01 10:33:04;;;;;;;7.57;5.37;;;8.90;1.00;;;;;;5078966;28;20418;-58
2022/03/01 10:35:29;;;;;;;6.83;5.13;;;9.00;1.00;;;;;;5096711;28;20444;-58
2022/03/01 10:37:55;;;;;;;6.33;4.80;;;10.20;1.00;;;;;;5103850;28;20509;-57
2022/03/01 10:40:29;;;;;;;6.13;4.83;;;9.40;1.00;;;;;;5098241;28;20194;-58
2022/03/01 10:45:34;;;;;;;5.17;4.53;;;9.10;1.00;;;;;;5098199;28;20441;-59
2022/03/01 10:48:00;;;;;;;9.50;4.93;;;9.00;1.00;;;;;;5099196;28;20424;-59
2022/03/01 10:50:26;;;;;;;6.63;5.10;;;9.10;1.00;;;;;;5097598;28;20913;-58
2022/03/01 10:52:51;;;;;;;7.63;5.40;;;9.10;1.00;;;;;;5097315;28;20546;-57
2022/03/01 10:55:25;;;;;;;7.90;5.47;;;9.10;1.00;;;;;;5091641;28;20343;-59
2022/03/01 10:58:12;;;;;;;5.60;4.77;;;9.10;1.00;;;;;;5105052;28;20234;-59
2022/03/01 11:00:38;;;;;;;6.23;4.80;;;9.00;1.00;;;;;;5102748;28;20530;-58
2022/03/01 11:03:05;;;;;;;6.50;4.90;;;9.10;1.00;;;;;;5101902;28;20464;-59
2022/03/01 11:05:31;;;;;;;6.87;4.90;;;9.10;1.00;;;;;;5096083;28;20447;-60
2022/03/01 11:08:01;;;;;;;6.90;5.23;;;9.10;1.00;;;;;;5106106;28;20447;-58
2022/03/01 11:10:30;;;;;;;6.33;4.93;;;9.20;1.00;;;;;;5099653;28;20444;-58
2022/03/01 11:13:00;;;;;;;7.03;5.23;;;9.10;1.00;;;;;;5101306;28;20977;-58
2022/03/01 11:15:29;;;;;;;5.40;4.90;;;;;;;;;;5103124;28;20437;-60
2022/03/01 11:18:07;;;;;;;7.47;5.20;;;9.20;1.00;;;;;;5100260;28;20449;-60
2022/03/01 11:20:36;;;;;;;8.10;5.77;;;9.20;1.00;;;;;;5110367;28;20502;-61
2022/03/01 11:23:10;;;;;;;9.17;5.20;;;9.60;1.00;;;;;;5104064;28;20455;-59
2022/03/01 11:25:42;;;;;;;6.30;4.83;;;9.70;1.00;;;;;;5103789;28;20448;-58
2022/03/01 11:28:10;;;;;;;7.40;5.57;;;9.80;1.00;;;;;;5107674;28;20450;-59
2022/03/01 11:30:38;;;;;;;11.77;6.03;;;9.90;1.00;;;;;;5093851;28;20938;-60
2022/03/01 11:33:05;;;;;;;10.90;5.57;;;10.00;1.00;;;;;;5104923;28;20414;-59
2022/03/01 11:35:33;;;;;;;8.93;6.30;;;10.10;1.00;;;;;;5091223;28;20942;-59
2022/03/01 11:38:06;;;;;;;7.90;5.60;;;10.00;1.00;;;;;;5093710;28;20543;-60
2022/03/01 11:40:38;;;;;;;10.50;6.00;;;10.00;1.00;;;;;;5105869;28;20435;-60
2022/03/01 11:43:13;;;;;;;6.30;4.80;;;10.10;1.00;;;;;;5108401;28;20434;-60
2022/03/01 11:45:44;;;;;;;6.33;5.03;;;10.20;1.00;;;;;;5097179;28;20428;-61
2022/03/01 11:48:15;;;;;;;6.97;5.60;;;10.10;1.00;;;;;;5104295;28;20786;-62
2022/03/01 11:50:59;;;;;;;7.23;5.43;;;10.00;1.00;;;;;;5100828;28;20629;-59
2022/03/01 11:53:31;;;;;;;6.17;4.03;;;10.00;1.00;;;;;;5099414;28;21004;-59
2022/03/01 11:55:59;;;;;;;5.50;4.50;;;10.00;1.00;;;;;;5102184;28;20479;-58
2022/03/01 11:58:25;;;;;;;7.33;5.17;;;10.00;1.00;;;;;;5092736;28;20506;-59
2022/03/01 12:00:52;;;;;;;6.20;5.27;;;10.10;1.00;;;;;;5104267;28;20440;-59
2022/03/01 12:03:24;;;;;;;7.07;5.53;;;10.10;1.00;;;;;;5104994;28;21184;-59
2022/03/01 12:05:51;;;;;;;7.17;5.73;;;10.10;1.00;;;;;;5103161;28;20778;-58
2022/03/01 12:08:18;;;;;;;7.73;5.97;;;10.00;1.00;;;;;;5094568;28;20443;-60
2022/03/01 12:10:53;;;;;;;7.47;6.37;;;10.00;1.00;;;;;;5109294;28;20928;-59
2022/03/01 12:13:19;;;;;;;8.87;6.07;;;10.20;1.00;;;;;;5111218;28;20430;-59
2022/03/01 12:15:55;;;;;;;6.80;5.63;;;10.30;1.00;;;;;;5105696;28;20904;-58
2022/03/01 12:18:28;;;;;;;10.13;5.97;;;10.40;1.00;;;;;;5093806;28;20179;-58
2022/03/01 12:20:54;;;;;;;9.40;5.23;;;;;;;;;;5110124;28;20439;-65
2022/03/01 12:23:28;;;;;;;8.00;6.30;;;9.90;1.00;;;;;;5095234;28;20453;-58
2022/03/01 12:25:54;;;;;;;7.27;5.57;;;9.90;1.00;;;;;;5101313;28;20515;-59
2022/03/01 12:29:03;;;;;;;7.50;5.50;;;9.90;1.00;;;;;;5088134;28;20523;-58
2022/03/01 12:35:00;;;;;;;6.23;5.17;;;10.00;1.00;;;;;;5099544;28;20428;-60
2022/03/01 12:37:30;;;;;;;7.90;5.90;;;10.00;1.00;;;;;;5090096;28;20733;-61
2022/03/01 12:39:56;;;;;;;7.37;5.30;;;;;;;;;;5090980;28;20468;-58
2022/03/01 12:43:02;;;;;;;7.87;5.80;;;10.10;1.00;;;;;;5100147;28;20467;-59
2022/03/01 12:45:47;;;;;;;9.00;5.53;;;10.20;1.00;;;;;;5073497;28;20460;-59
2022/03/01 12:48:15;;;;;;;8.97;5.07;;;10.20;1.00;;;;;;5094605;28;20444;-58
2022/03/01 12:50:49;;;;;;;7.60;5.60;;;10.30;1.00;;;;;;5099397;28;20440;-60
2022/03/01 12:53:16;;;;;;;7.27;5.80;;;10.30;1.00;;;;;;5098695;28;20932;-60
2022/03/01 12:55:47;;;;;;;7.77;5.07;;;10.40;1.00;;;;;;5076520;28;20472;-60
2022/03/01 12:58:25;;;;;;;7.50;5.30;;;10.50;1.00;;;;;;5096482;28;20452;-58
2022/03/01 13:00:51;;;;;;;8.90;5.50;;;10.50;1.00;;;;;;5102605;28;20535;-58
2022/03/01 13:03:28;;;;;;;9.27;5.70;;;10.60;1.00;;;;;;5104921;28;21023;-61
2022/03/01 13:06:15;;;;;;;5.57;4.93;;;10.60;1.00;;;;;;5089361;28;20436;-61
2022/03/01 13:08:42;;;;;;;8.17;5.73;;;10.50;1.00;;;;;;5084227;28;20497;-59
2022/03/01 13:11:09;;;;;;;6.23;5.60;;;10.40;1.00;;;;;;5108132;28;20436;-60
2022/03/01 13:13:43;;;;;;;9.67;5.60;;;10.40;1.00;;;;;;5094100;28;20431;-60
2022/03/01 13:16:09;;;;;;;13.00;6.50;;;;;;;;;;5094132;28;20448;-59
2022/03/01 13:18:34;;;;;;;7.00;5.53;;;10.30;1.00;;;;;;5094135;28;20978;-59
2022/03/01 13:21:00;;;;;;;7.73;5.50;;;10.40;1.00;;;;;;5109201;28;20519;-60
2022/03/01 13:23:31;;;;;;;6.83;5.73;;;10.40;1.00;;;;;;5103403;28;20260;-62
2022/03/01 13:26:01;;;;;;;7.90;5.50;;;10.40;1.00;;;;;;5076996;28;20415;-59
2022/03/01 13:28:37;;;;;;;9.80;5.33;;;10.60;1.00;;;;;;5114178;28;20522;-60
2022/03/01 13:31:05;;;;;;;8.70;6.37;;;10.50;1.00;;;;;;5109172;28;21012;-59
2022/03/01 13:33:31;;;;;;;7.17;5.47;;;10.40;1.00;;;;;;5112740;28;20947;-58
2022/03/01 13:35:58;;;;;;;7.30;6.43;;;;;;;;;;5096935;28;20475;-61
2022/03/01 13:38:25;;;;;;;8.23;5.70;;;10.40;1.00;;;;;;5109175;28;20411;-62
2022/03/01 13:40:51;;;;;;;8.20;5.70;;;10.40;1.00;;;;;;5106539;28;20600;-58
2022/03/01 13:45:45;;;;;;;11.23;6.20;;;10.40;1.00;;;;;;5093645;28;20897;-58